Time;durP1;ratioP1;P1;durP2;ratioP2;P2;SDS_P1;SDS_P2;PMS_P1;PMS_P2;Temp;Humidity;BMP_temperature;BMP_pressure;BME280_temperature;BME280_humidity;BME280_pressure;Samples;Min_cycle;Max_cycle;Signal;HPM_P1;HPM_P2
2021/12/12 00:01:55;;;;;;;160.33;97.50;;;0.90;99.90;;;;;;5056346;28;20227;-69
2021/12/12 00:04:46;;;;;;;158.03;99.27;;;0.90;99.90;;;;;;5033190;28;20233;-70
2021/12/12 00:07:37;;;;;;;160.47;97.60;;;0.90;99.90;;;;;;5051981;28;20259;-69
2021/12/12 00:10:29;;;;;;;153.07;100.70;;;1.00;99.90;;;;;;5055995;28;20222;-70
2021/12/12 00:13:21;;;;;;;148.73;97.70;;;0.90;99.90;;;;;;5045197;28;20229;-69
2021/12/12 00:16:10;;;;;;;163.10;94.97;;;1.10;99.90;;;;;;5071774;28;20220;-69
2021/12/12 00:18:59;;;;;;;151.50;96.93;;;1.10;99.90;;;;;;5042896;28;20233;-69
2021/12/12 00:21:52;;;;;;;164.47;99.77;;;1.10;99.90;;;;;;5042996;28;20241;-69
2021/12/12 00:24:43;;;;;;;156.17;97.43;;;0.80;99.90;;;;;;5058676;28;20233;-69
2021/12/12 00:27:31;;;;;;;156.77;94.80;;;0.70;99.90;;;;;;5059111;28;20217;-67
2021/12/12 00:30:20;;;;;;;158.03;98.27;;;0.80;99.90;;;;;;5045164;28;20225;-70
2021/12/12 00:33:09;;;;;;;144.90;93.50;;;0.70;99.90;;;;;;5044026;28;20302;-71
2021/12/12 00:35:58;;;;;;;155.10;93.50;;;0.70;99.90;;;;;;5043214;28;20277;-68
2021/12/12 00:38:49;;;;;;;163.57;92.90;;;0.70;99.90;;;;;;5042835;28;20233;-69
2021/12/12 00:41:44;;;;;;;189.33;100.23;;;0.80;99.90;;;;;;5058418;28;20900;-70
2021/12/12 00:44:36;;;;;;;173.70;96.23;;;0.90;99.90;;;;;;5045809;28;20216;-69
2021/12/12 00:47:26;;;;;;;168.40;99.53;;;0.90;99.90;;;;;;5046339;28;20574;-69
2021/12/12 00:50:30;;;;;;;151.33;94.53;;;0.70;99.90;;;;;;5044510;28;20307;-68
2021/12/12 00:53:20;;;;;;;147.07;93.43;;;0.70;99.90;;;;;;5057075;28;20216;-69
2021/12/12 00:56:09;;;;;;;149.23;89.87;;;0.50;99.90;;;;;;5041444;28;20224;-70
2021/12/12 00:59:00;;;;;;;162.20;95.03;;;0.50;99.90;;;;;;5058611;28;20226;-69
2021/12/12 01:01:50;;;;;;;150.03;90.93;;;0.30;99.90;;;;;;5081516;28;20218;-69
2021/12/12 01:04:42;;;;;;;138.13;91.00;;;0.40;99.90;;;;;;5073714;28;20233;-69
2021/12/12 01:07:40;;;;;;;145.30;90.33;;;0.40;99.90;;;;;;5083060;28;20220;-70
2021/12/12 01:10:35;;;;;;;144.40;91.00;;;0.40;99.90;;;;;;5082946;28;20224;-69
2021/12/12 01:13:24;;;;;;;144.67;89.80;;;0.40;99.90;;;;;;5081253;28;20752;-69
2021/12/12 01:16:19;;;;;;;161.73;89.47;;;0.30;99.90;;;;;;5082346;28;20329;-68
2021/12/12 01:19:11;;;;;;;139.13;88.03;;;0.20;99.90;;;;;;5081271;28;20223;-70
2021/12/12 01:22:03;;;;;;;130.83;88.10;;;0.20;99.90;;;;;;5084001;28;20219;-69
2021/12/12 01:24:54;;;;;;;148.30;92.30;;;0.30;99.90;;;;;;5085651;28;20222;-69
2021/12/12 01:27:43;;;;;;;135.00;88.40;;;0.30;99.90;;;;;;5081950;28;20208;-68
2021/12/12 01:30:31;;;;;;;132.97;86.37;;;0.40;99.90;;;;;;5082951;28;20227;-69
2021/12/12 01:33:33;;;;;;;131.70;87.40;;;0.40;99.90;;;;;;5061337;28;20217;-69
2021/12/12 01:36:26;;;;;;;163.00;91.43;;;0.40;99.90;;;;;;5051107;28;21181;-68
2021/12/12 01:39:20;;;;;;;141.20;90.40;;;0.40;99.90;;;;;;5068528;28;20223;-68
2021/12/12 01:42:15;;;;;;;142.93;90.23;;;0.40;99.90;;;;;;5068414;28;20216;-70
2021/12/12 01:45:11;;;;;;;138.67;88.40;;;0.30;99.90;;;;;;5086262;28;20298;-68
2021/12/12 01:48:03;;;;;;;126.63;87.10;;;0.20;99.90;;;;;;5064771;28;20277;-70
2021/12/12 01:50:57;;;;;;;121.57;88.20;;;0.10;99.90;;;;;;5062324;28;20801;-68
2021/12/12 01:53:50;;;;;;;123.97;87.03;;;0.10;99.90;;;;;;5059027;28;20223;-68
2021/12/12 01:56:42;;;;;;;135.27;87.83;;;0.10;99.90;;;;;;5043811;28;20220;-68
2021/12/12 01:59:35;;;;;;;127.00;89.23;;;0.10;99.90;;;;;;5062972;28;20224;-68
2021/12/12 02:02:28;;;;;;;123.10;88.83;;;0.00;99.90;;;;;;5064416;28;20235;-68
2021/12/12 02:05:20;;;;;;;126.17;88.17;;;0.10;99.90;;;;;;5084562;28;20535;-68
2021/12/12 02:08:13;;;;;;;134.30;91.37;;;0.00;99.90;;;;;;5082161;28;20227;-69
2021/12/12 02:11:04;;;;;;;130.77;89.07;;;0.00;99.90;;;;;;5060924;28;20306;-68
2021/12/12 02:13:56;;;;;;;139.30;86.23;;;0.00;99.90;;;;;;5080454;28;20243;-68
2021/12/12 02:16:51;;;;;;;141.03;84.70;;;0.00;99.90;;;;;;5067115;28;20223;-68
2021/12/12 02:19:51;;;;;;;127.77;85.33;;;0.00;99.90;;;;;;5081361;28;20231;-69
2021/12/12 02:22:57;;;;;;;132.77;85.10;;;-0.10;99.90;;;;;;5082125;28;20220;-68
2021/12/12 02:35:21;;;;;;;120.30;81.97;;;0.20;99.90;;;;;;5048674;28;20219;-67
2021/12/12 02:38:13;;;;;;;128.43;82.53;;;0.30;99.90;;;;;;5084249;28;20216;-69
2021/12/12 02:41:06;;;;;;;129.03;80.50;;;0.20;99.90;;;;;;5073240;28;20707;-70
2021/12/12 02:43:58;;;;;;;116.77;80.93;;;0.20;99.90;;;;;;5076264;28;20279;-70
2021/12/12 02:46:47;;;;;;;121.60;81.77;;;0.20;99.90;;;;;;5083681;28;20223;-69
2021/12/12 02:49:40;;;;;;;114.93;80.27;;;0.10;99.90;;;;;;5080393;28;20223;-71
2021/12/12 02:52:30;;;;;;;124.03;81.83;;;0.20;99.90;;;;;;5058792;28;20810;-69
2021/12/12 02:55:25;;;;;;;125.70;81.07;;;0.20;99.90;;;;;;5083924;28;20223;-69
2021/12/12 02:58:16;;;;;;;139.03;81.20;;;0.20;99.90;;;;;;5072999;28;20220;-69
2021/12/12 03:01:11;;;;;;;145.90;84.83;;;0.30;99.90;;;;;;5068760;28;20250;-69
2021/12/12 03:04:00;;;;;;;146.93;82.80;;;0.30;99.90;;;;;;5068653;28;20334;-69
2021/12/12 03:06:49;;;;;;;124.10;78.83;;;0.30;99.90;;;;;;5081651;28;20222;-69
2021/12/12 03:09:40;;;;;;;155.30;84.27;;;0.30;99.90;;;;;;5082582;28;20215;-70
2021/12/12 03:12:34;;;;;;;121.07;80.53;;;0.30;99.90;;;;;;5080352;28;20211;-70
2021/12/12 03:15:26;;;;;;;130.20;79.80;;;0.30;99.90;;;;;;5060890;28;20315;-70
2021/12/12 03:18:18;;;;;;;119.37;78.27;;;0.30;99.90;;;;;;5080312;28;20222;-69
2021/12/12 03:21:15;;;;;;;138.90;81.67;;;0.30;99.90;;;;;;5085269;28;20322;-68
2021/12/12 03:24:08;;;;;;;131.67;77.50;;;0.30;99.90;;;;;;5082817;28;20223;-69
2021/12/12 03:27:01;;;;;;;121.80;75.93;;;0.40;99.90;;;;;;5086855;28;20218;-68
2021/12/12 03:29:52;;;;;;;110.23;72.20;;;0.30;99.90;;;;;;5084487;28;20538;-72
2021/12/12 03:32:41;;;;;;;122.43;75.27;;;0.20;99.90;;;;;;5085878;28;20230;-68
2021/12/12 03:35:30;;;;;;;127.20;72.57;;;0.10;99.90;;;;;;5084260;28;20223;-69
2021/12/12 03:38:20;;;;;;;134.17;75.90;;;0.30;99.90;;;;;;5060021;28;20247;-69
2021/12/12 03:41:12;;;;;;;127.13;76.30;;;0.20;99.90;;;;;;5062430;28;20388;-68
2021/12/12 03:44:05;;;;;;;112.07;72.07;;;0.40;99.90;;;;;;5073947;28;20706;-68
2021/12/12 03:47:00;;;;;;;134.53;77.87;;;0.50;99.90;;;;;;5055525;28;20224;-68
2021/12/12 03:49:49;;;;;;;132.00;74.13;;;0.50;99.90;;;;;;5079600;28;20235;-68
2021/12/12 03:52:38;;;;;;;126.27;78.63;;;0.40;99.90;;;;;;5082243;28;20216;-69
2021/12/12 03:55:29;;;;;;;130.97;75.50;;;0.40;99.90;;;;;;5082735;28;20215;-68
2021/12/12 03:58:18;;;;;;;128.73;78.87;;;0.30;99.90;;;;;;5083232;28;20215;-68
2021/12/12 04:01:12;;;;;;;132.60;77.40;;;0.30;99.90;;;;;;5053086;28;20290;-69
2021/12/12 04:04:06;;;;;;;141.37;78.80;;;0.30;99.90;;;;;;5074468;28;20222;-68
2021/12/12 04:06:56;;;;;;;140.43;79.33;;;0.40;99.90;;;;;;5059857;28;20242;-68
2021/12/12 04:09:45;;;;;;;148.03;82.17;;;0.40;99.90;;;;;;5094274;28;20240;-69
2021/12/12 04:12:33;;;;;;;133.60;84.77;;;0.40;99.90;;;;;;5082363;28;20635;-68
2021/12/12 04:15:23;;;;;;;132.20;81.87;;;0.30;99.90;;;;;;5081217;28;20258;-68
2021/12/12 04:18:11;;;;;;;144.90;85.83;;;0.40;99.90;;;;;;5083718;28;20226;-67
2021/12/12 04:21:01;;;;;;;145.93;81.97;;;0.30;99.90;;;;;;5081304;28;20647;-70
2021/12/12 04:23:51;;;;;;;145.93;86.47;;;0.40;99.90;;;;;;5076573;28;20230;-69
2021/12/12 04:26:42;;;;;;;145.57;84.53;;;0.40;99.90;;;;;;5083031;28;20222;-67
2021/12/12 04:29:34;;;;;;;134.77;81.60;;;0.30;99.90;;;;;;5086299;28;20222;-68
2021/12/12 04:32:25;;;;;;;133.20;86.30;;;0.40;99.90;;;;;;5062403;28;20232;-68
2021/12/12 04:35:17;;;;;;;142.87;84.23;;;0.40;99.90;;;;;;5081991;28;20238;-69
2021/12/12 04:38:07;;;;;;;125.63;81.77;;;0.50;99.90;;;;;;5089101;28;20227;-69
2021/12/12 04:40:56;;;;;;;137.57;86.40;;;0.50;99.90;;;;;;5066568;28;20235;-69
2021/12/12 04:43:44;;;;;;;130.03;85.93;;;0.50;99.90;;;;;;5054142;28;20228;-70
2021/12/12 04:49:54;;;;;;;135.40;83.67;;;0.50;99.90;;;;;;5077148;28;20255;-70
2021/12/12 04:49:57;;;;;;;147.03;85.67;;;0.50;99.90;;;;;;5088692;28;20226;-67
2021/12/12 04:52:51;;;;;;;145.67;85.93;;;0.40;99.90;;;;;;5072861;28;20219;-69
2021/12/12 04:55:56;;;;;;;134.90;83.43;;;0.50;99.90;;;;;;5076204;28;20714;-70
2021/12/12 04:58:50;;;;;;;136.03;84.23;;;0.60;99.90;;;;;;5085344;28;20234;-69
2021/12/12 05:01:42;;;;;;;132.50;83.00;;;0.50;99.90;;;;;;5085558;28;20708;-69
2021/12/12 05:04:37;;;;;;;135.70;85.47;;;0.60;99.90;;;;;;5071400;28;20243;-70
2021/12/12 05:07:33;;;;;;;126.30;80.70;;;0.60;99.90;;;;;;5071409;28;20520;-69
2021/12/12 05:10:28;;;;;;;127.33;81.67;;;0.60;99.90;;;;;;5067668;28;20298;-69
2021/12/12 05:13:21;;;;;;;130.27;81.47;;;0.50;99.90;;;;;;5080285;28;20235;-68
2021/12/12 05:16:16;;;;;;;128.33;81.90;;;0.60;99.90;;;;;;5066744;28;20210;-69
2021/12/12 05:19:12;;;;;;;136.20;86.17;;;0.60;99.90;;;;;;5086806;28;20234;-69
2021/12/12 05:22:09;;;;;;;122.80;83.57;;;0.60;99.90;;;;;;5082803;28;20220;-69
2021/12/12 05:25:01;;;;;;;122.47;83.03;;;0.70;99.90;;;;;;5075487;28;20231;-69
2021/12/12 05:27:54;;;;;;;114.10;77.97;;;0.70;99.90;;;;;;5085455;28;20227;-69
2021/12/12 05:30:45;;;;;;;124.93;84.13;;;0.70;99.90;;;;;;5080545;28;20215;-70
2021/12/12 05:33:35;;;;;;;120.93;81.90;;;0.70;99.90;;;;;;5084985;28;20269;-70
2021/12/12 05:36:24;;;;;;;122.80;83.57;;;0.80;99.90;;;;;;5049722;28;20220;-68
2021/12/12 05:39:13;;;;;;;114.83;81.53;;;0.80;99.90;;;;;;5060836;28;20227;-71
2021/12/12 05:42:06;;;;;;;118.30;81.43;;;0.80;99.90;;;;;;5085976;28;20227;-69
2021/12/12 05:44:55;;;;;;;103.77;77.83;;;0.80;99.90;;;;;;5097178;27;20234;-68
2021/12/12 05:47:45;;;;;;;116.77;79.27;;;0.70;99.90;;;;;;5075901;28;20224;-68
2021/12/12 05:50:35;;;;;;;108.23;81.43;;;0.70;99.90;;;;;;5065358;28;20223;-69
2021/12/12 05:53:24;;;;;;;113.70;78.13;;;0.80;99.90;;;;;;5070502;28;20831;-69
2021/12/12 05:56:14;;;;;;;116.87;81.73;;;0.70;99.90;;;;;;5061956;28;20222;-69
2021/12/12 05:59:05;;;;;;;114.10;80.07;;;0.80;99.90;;;;;;5083891;28;20227;-69
2021/12/12 06:01:56;;;;;;;124.37;79.20;;;0.90;99.90;;;;;;5081299;28;20220;-69
2021/12/12 06:04:46;;;;;;;124.53;86.13;;;1.00;99.90;;;;;;5067965;28;20297;-68
2021/12/12 06:07:36;;;;;;;129.00;83.33;;;1.00;99.90;;;;;;5084947;28;20234;-69
2021/12/12 06:10:25;;;;;;;121.97;81.67;;;1.00;99.90;;;;;;5083917;28;20226;-70
2021/12/12 06:13:17;;;;;;;124.97;82.10;;;1.10;99.90;;;;;;5084237;28;20233;-69
2021/12/12 06:16:07;;;;;;;127.70;85.00;;;1.10;99.90;;;;;;5084855;28;20230;-70
2021/12/12 06:19:00;;;;;;;126.73;85.67;;;1.20;99.90;;;;;;5093251;27;20228;-69
2021/12/12 06:21:53;;;;;;;125.23;86.73;;;1.10;99.90;;;;;;5083687;28;20272;-70
2021/12/12 06:24:43;;;;;;;129.40;87.80;;;1.10;99.90;;;;;;5082023;28;20216;-70
2021/12/12 06:27:32;;;;;;;132.53;88.43;;;1.10;99.90;;;;;;5067848;28;20724;-70
2021/12/12 06:30:24;;;;;;;138.80;91.60;;;0.90;99.90;;;;;;5066442;28;20318;-69
2021/12/12 06:33:14;;;;;;;131.60;92.63;;;0.90;99.90;;;;;;5060054;28;20668;-69
2021/12/12 06:36:03;;;;;;;144.90;94.23;;;1.00;99.90;;;;;;5080879;28;20223;-69
2021/12/12 06:38:56;;;;;;;152.90;93.50;;;1.00;99.90;;;;;;5083287;28;20250;-70
2021/12/12 06:41:47;;;;;;;164.33;91.97;;;0.90;99.90;;;;;;5080156;28;20227;-66
2021/12/12 06:44:38;;;;;;;155.23;94.73;;;0.90;99.90;;;;;;5083009;28;20231;-67
2021/12/12 06:47:28;;;;;;;175.27;94.37;;;0.90;99.90;;;;;;5060258;28;20228;-69
2021/12/12 06:50:17;;;;;;;162.97;92.70;;;1.10;99.90;;;;;;5060672;28;20307;-69
2021/12/12 06:53:07;;;;;;;167.23;95.43;;;1.10;99.90;;;;;;5079521;28;20223;-67
2021/12/12 06:55:58;;;;;;;157.07;91.90;;;1.10;99.90;;;;;;5079550;28;20247;-69
2021/12/12 06:58:50;;;;;;;168.70;96.23;;;1.00;99.90;;;;;;5075154;28;20239;-69
2021/12/12 07:01:42;;;;;;;156.30;92.87;;;0.90;99.90;;;;;;5075979;28;20236;-68
2021/12/12 07:04:33;;;;;;;168.53;93.80;;;1.00;99.90;;;;;;5076922;28;20260;-67
2021/12/12 07:07:22;;;;;;;166.57;91.27;;;1.00;99.90;;;;;;5063364;28;20976;-67
2021/12/12 07:10:13;;;;;;;157.93;91.57;;;1.00;99.90;;;;;;5076424;28;20262;-70
2021/12/12 07:13:06;;;;;;;162.43;93.67;;;1.10;99.90;;;;;;5080807;28;20226;-68
2021/12/12 07:15:57;;;;;;;157.70;94.07;;;1.00;99.90;;;;;;5064652;28;20230;-69
2021/12/12 07:18:46;;;;;;;158.93;92.23;;;1.00;99.90;;;;;;5077767;28;20231;-69
2021/12/12 07:21:37;;;;;;;170.67;95.07;;;1.00;99.90;;;;;;5064332;28;20249;-67
2021/12/12 07:24:26;;;;;;;166.70;96.83;;;1.00;99.90;;;;;;5080148;28;20230;-70
2021/12/12 07:27:20;;;;;;;156.43;93.03;;;1.00;99.90;;;;;;5079098;28;20532;-69
2021/12/12 07:30:11;;;;;;;156.13;91.87;;;1.00;99.90;;;;;;5079675;28;20224;-68
2021/12/12 07:33:03;;;;;;;145.20;86.93;;;1.00;99.90;;;;;;5058014;28;20227;-66
2021/12/12 07:35:53;;;;;;;153.83;93.67;;;1.00;99.90;;;;;;5056409;28;20216;-65
2021/12/12 07:38:45;;;;;;;158.97;94.37;;;1.00;99.90;;;;;;5064243;28;20219;-67
2021/12/12 07:41:36;;;;;;;159.73;92.77;;;1.00;99.90;;;;;;5080036;28;20373;-65
2021/12/12 07:44:31;;;;;;;155.30;94.27;;;1.00;99.90;;;;;;5065426;28;20247;-68
2021/12/12 07:47:21;;;;;;;152.03;92.47;;;0.90;99.90;;;;;;5077582;28;20230;-66
2021/12/12 07:50:13;;;;;;;170.93;95.83;;;0.90;99.90;;;;;;5080922;28;21080;-67
2021/12/12 07:53:02;;;;;;;161.63;99.23;;;0.90;99.90;;;;;;5078111;28;20238;-65
2021/12/12 07:55:51;;;;;;;165.93;98.67;;;1.00;99.90;;;;;;5082256;28;20219;-68
2021/12/12 07:58:39;;;;;;;167.43;96.27;;;0.90;99.90;;;;;;5079083;28;20222;-67
2021/12/12 08:01:29;;;;;;;184.20;95.03;;;0.70;99.90;;;;;;5082969;28;20724;-66
2021/12/12 08:04:26;;;;;;;183.63;96.03;;;0.90;99.90;;;;;;5079994;28;20325;-64
2021/12/12 08:07:18;;;;;;;188.73;101.80;;;1.10;99.90;;;;;;5080899;28;20219;-68
2021/12/12 08:10:09;;;;;;;195.83;101.57;;;1.10;99.90;;;;;;5083453;28;20604;-68
2021/12/12 08:12:58;;;;;;;207.90;102.90;;;1.20;99.90;;;;;;5080599;28;20704;-67
2021/12/12 08:15:47;;;;;;;202.47;104.17;;;1.20;99.90;;;;;;5078694;28;20250;-67
2021/12/12 08:18:38;;;;;;;204.63;105.93;;;1.20;99.90;;;;;;5079295;28;20281;-67
2021/12/12 08:21:33;;;;;;;195.10;102.83;;;1.10;99.90;;;;;;5080805;28;20698;-66
2021/12/12 08:24:23;;;;;;;207.10;106.77;;;1.00;99.90;;;;;;5079315;28;20315;-67
2021/12/12 08:27:12;;;;;;;215.63;111.07;;;1.00;99.90;;;;;;5080550;28;20328;-66
2021/12/12 08:30:02;;;;;;;220.83;110.10;;;0.90;99.90;;;;;;5082211;28;20249;-65
2021/12/12 08:32:52;;;;;;;243.13;111.77;;;0.90;99.90;;;;;;5081672;28;20216;-69
2021/12/12 08:35:42;;;;;;;243.20;116.87;;;0.90;99.90;;;;;;5081316;28;20219;-67
2021/12/12 08:38:33;;;;;;;248.43;116.00;;;1.00;99.90;;;;;;5078721;28;20227;-65
2021/12/12 08:41:22;;;;;;;247.90;118.30;;;0.90;99.90;;;;;;5069636;28;20234;-65
2021/12/12 08:44:11;;;;;;;268.97;121.67;;;1.00;99.90;;;;;;5082364;28;21129;-68
2021/12/12 08:47:02;;;;;;;281.40;125.40;;;1.00;99.90;;;;;;5082498;28;20242;-66
2021/12/12 08:49:52;;;;;;;273.73;125.60;;;0.90;99.90;;;;;;5080509;28;20223;-68
2021/12/12 08:52:45;;;;;;;290.27;128.90;;;1.00;99.90;;;;;;5076316;28;20707;-66
2021/12/12 08:55:42;;;;;;;282.30;133.73;;;0.90;99.90;;;;;;5080985;28;20231;-66
2021/12/12 08:58:34;;;;;;;317.13;133.63;;;1.00;99.90;;;;;;5053050;28;20271;-67
2021/12/12 09:01:23;;;;;;;306.37;134.40;;;1.00;99.90;;;;;;5080229;28;20295;-67
2021/12/12 09:04:13;;;;;;;310.50;138.57;;;1.00;99.90;;;;;;5066231;28;20292;-67
2021/12/12 09:07:22;;;;;;;325.53;139.30;;;1.00;99.90;;;;;;5077447;28;20223;-65
2021/12/12 09:10:14;;;;;;;334.63;141.90;;;0.90;99.90;;;;;;5083086;28;20227;-67
2021/12/12 09:13:11;;;;;;;325.43;138.23;;;0.80;99.90;;;;;;5064287;28;20292;-68
2021/12/12 09:16:06;;;;;;;298.17;133.07;;;0.90;99.90;;;;;;5071312;28;20238;-69
2021/12/12 09:19:02;;;;;;;308.27;135.60;;;0.80;99.90;;;;;;5082243;28;20219;-69
2021/12/12 09:21:57;;;;;;;303.20;132.13;;;0.70;99.90;;;;;;5081714;28;20587;-69
2021/12/12 09:24:54;;;;;;;308.40;138.00;;;0.70;99.90;;;;;;5082705;28;20230;-67
2021/12/12 09:27:46;;;;;;;305.10;138.80;;;0.50;99.90;;;;;;5085450;28;20223;-67
2021/12/12 09:30:40;;;;;;;304.40;137.20;;;0.60;99.90;;;;;;5082324;28;21162;-69
2021/12/12 09:33:37;;;;;;;308.07;137.80;;;0.50;99.90;;;;;;5084033;28;20226;-71
2021/12/12 09:36:33;;;;;;;307.10;142.23;;;0.40;99.90;;;;;;5059368;28;20239;-68
2021/12/12 09:39:27;;;;;;;302.13;138.07;;;0.50;99.90;;;;;;5065793;28;20715;-67
2021/12/12 09:42:49;;;;;;;313.40;139.60;;;0.60;99.90;;;;;;5065684;28;20811;-70
2021/12/12 09:46:41;;;;;;;284.07;134.70;;;0.50;99.90;;;;;;5056137;28;20338;-68
2021/12/12 09:53:39;;;;;;;278.57;128.43;;;0.60;99.90;;;;;;5013046;28;20309;-69
2021/12/12 09:56:37;;;;;;;280.33;134.77;;;0.60;99.90;;;;;;5066487;28;20254;-70
2021/12/12 09:59:54;;;;;;;254.20;128.27;;;0.60;99.90;;;;;;5072785;28;20724;-69
2021/12/12 10:03:13;;;;;;;244.70;123.70;;;0.80;99.90;;;;;;5081220;28;20223;-69
2021/12/12 10:06:08;;;;;;;287.07;155.17;;;0.80;99.90;;;;;;5053845;28;20232;-68
2021/12/12 10:09:04;;;;;;;239.83;117.37;;;0.70;99.90;;;;;;5080812;28;20800;-67
2021/12/12 10:12:00;;;;;;;228.33;111.73;;;0.70;99.90;;;;;;5079786;28;20314;-68
2021/12/12 10:14:56;;;;;;;239.30;117.73;;;0.70;99.90;;;;;;5080600;28;20272;-68
2021/12/12 10:17:48;;;;;;;248.10;121.77;;;0.90;99.90;;;;;;5049809;28;21599;-67
2021/12/12 10:20:42;;;;;;;231.50;121.20;;;0.80;99.90;;;;;;5055713;28;21538;-69
2021/12/12 10:23:50;;;;;;;254.97;121.73;;;0.60;99.90;;;;;;5057995;28;20223;-67
2021/12/12 10:26:42;;;;;;;224.20;114.87;;;0.60;99.90;;;;;;5077987;28;20243;-69
2021/12/12 10:29:36;;;;;;;222.67;116.13;;;0.80;99.90;;;;;;5077851;28;20233;-68
2021/12/12 10:32:28;;;;;;;208.97;109.90;;;0.80;99.90;;;;;;5069299;28;20227;-69
2021/12/12 10:35:22;;;;;;;192.70;106.87;;;0.80;99.90;;;;;;5082482;28;20227;-70
2021/12/12 10:38:17;;;;;;;205.43;107.57;;;0.80;99.90;;;;;;5078538;28;20264;-68
2021/12/12 10:41:12;;;;;;;205.80;106.93;;;0.80;99.90;;;;;;5077678;28;20227;-68
2021/12/12 10:44:06;;;;;;;206.97;106.20;;;0.80;99.90;;;;;;5077850;28;20227;-70
2021/12/12 10:46:59;;;;;;;221.37;109.10;;;0.80;99.90;;;;;;5080125;28;20239;-69
2021/12/12 10:50:04;;;;;;;207.13;105.77;;;0.80;99.90;;;;;;5078681;28;20215;-70
2021/12/12 10:53:01;;;;;;;269.07;145.10;;;0.60;99.90;;;;;;5068073;28;20301;-69
2021/12/12 10:55:57;;;;;;;227.87;114.33;;;0.60;99.90;;;;;;5067890;28;20695;-69
2021/12/12 10:58:50;;;;;;;213.47;112.07;;;0.40;99.90;;;;;;5080714;28;20253;-70
2021/12/12 11:01:43;;;;;;;218.63;112.77;;;0.60;99.90;;;;;;5080222;28;20218;-69
2021/12/12 11:04:40;;;;;;;220.63;112.57;;;0.60;99.90;;;;;;5062643;28;20227;-69
2021/12/12 11:07:37;;;;;;;222.20;111.10;;;0.60;99.90;;;;;;5081033;28;20272;-69
2021/12/12 11:10:30;;;;;;;213.97;110.53;;;0.70;99.90;;;;;;5065556;28;20227;-68
2021/12/12 11:13:22;;;;;;;209.47;108.03;;;0.70;99.90;;;;;;5079374;28;20320;-69
2021/12/12 11:16:18;;;;;;;212.73;111.10;;;0.70;99.90;;;;;;5079193;28;20752;-68
2021/12/12 11:19:13;;;;;;;203.63;108.50;;;0.70;99.90;;;;;;5059663;28;20217;-68
2021/12/12 11:22:08;;;;;;;224.07;113.60;;;0.70;99.90;;;;;;5060723;28;20226;-70
2021/12/12 11:25:03;;;;;;;214.77;116.17;;;0.80;99.90;;;;;;5057152;28;20330;-68
2021/12/12 11:27:57;;;;;;;215.73;108.23;;;0.70;99.90;;;;;;5055202;28;20224;-69
2021/12/12 11:30:49;;;;;;;218.23;106.87;;;0.70;99.90;;;;;;5056791;28;20232;-68
2021/12/12 11:33:42;;;;;;;197.97;106.57;;;0.40;99.90;;;;;;5053249;28;20220;-69
2021/12/12 11:36:36;;;;;;;219.10;109.90;;;0.50;99.90;;;;;;5060524;28;20242;-70
2021/12/12 11:39:32;;;;;;;208.70;107.70;;;0.60;99.90;;;;;;5057271;28;20714;-68
2021/12/12 11:42:27;;;;;;;203.30;108.33;;;0.70;99.90;;;;;;5057626;28;20246;-68
2021/12/12 11:45:24;;;;;;;230.50;110.93;;;0.60;99.90;;;;;;5055453;28;20254;-68
2021/12/12 11:48:19;;;;;;;229.73;109.00;;;0.80;99.90;;;;;;5049524;28;20220;-69
2021/12/12 11:51:14;;;;;;;220.93;112.20;;;0.60;99.90;;;;;;5063786;28;20303;-68
2021/12/12 11:54:09;;;;;;;207.87;110.93;;;0.60;99.90;;;;;;5061292;28;20596;-68
2021/12/12 11:57:04;;;;;;;203.90;109.70;;;0.60;99.90;;;;;;5060806;28;20224;-69
2021/12/12 12:00:00;;;;;;;206.60;104.77;;;0.50;99.90;;;;;;5061249;28;20252;-69
2021/12/12 12:03:09;;;;;;;224.30;108.60;;;0.50;99.90;;;;;;5076099;28;20766;-69
2021/12/12 12:06:17;;;;;;;209.27;107.70;;;0.40;99.90;;;;;;5051241;28;20719;-69
2021/12/12 12:09:26;;;;;;;198.23;105.77;;;0.50;99.90;;;;;;5077633;28;20235;-70
2021/12/12 12:12:31;;;;;;;209.10;106.20;;;0.50;99.90;;;;;;5059909;28;21027;-68
2021/12/12 12:15:30;;;;;;;215.90;108.33;;;0.50;99.90;;;;;;5068570;28;20223;-69
2021/12/12 12:18:30;;;;;;;198.10;104.10;;;0.60;99.90;;;;;;5063777;28;20730;-70
2021/12/12 12:21:28;;;;;;;213.07;103.20;;;0.60;99.90;;;;;;5063360;28;20536;-69
2021/12/12 12:24:37;;;;;;;197.93;101.07;;;0.50;99.90;;;;;;5074858;28;20248;-68
2021/12/12 12:27:33;;;;;;;182.63;102.20;;;0.60;99.90;;;;;;5076702;28;20310;-70
2021/12/12 12:30:57;;;;;;;176.70;97.20;;;0.60;99.90;;;;;;5076307;28;20287;-71
2021/12/12 12:34:22;;;;;;;186.53;99.73;;;0.80;99.90;;;;;;5054853;28;20289;-71
2021/12/12 12:37:51;;;;;;;171.20;98.73;;;0.50;99.90;;;;;;5066430;28;20230;-69
2021/12/12 12:41:27;;;;;;;185.07;97.40;;;0.60;99.90;;;;;;5073968;28;20216;-68
2021/12/12 12:44:56;;;;;;;181.43;96.17;;;0.60;99.90;;;;;;5073519;28;20576;-69
2021/12/12 12:48:18;;;;;;;199.73;103.83;;;0.60;99.90;;;;;;5078794;28;20219;-68
2021/12/12 12:51:46;;;;;;;197.63;97.70;;;0.70;99.90;;;;;;5046897;28;20223;-67
2021/12/12 12:54:43;;;;;;;210.40;104.03;;;0.80;99.90;;;;;;5066246;28;20211;-66
2021/12/12 12:57:38;;;;;;;203.90;101.57;;;0.70;99.90;;;;;;5064100;28;20429;-67
2021/12/12 13:00:29;;;;;;;207.90;103.67;;;0.80;99.90;;;;;;5062880;28;20248;-65
2021/12/12 13:03:29;;;;;;;215.77;103.87;;;0.70;99.90;;;;;;5082175;28;20219;-66
2021/12/12 13:06:57;;;;;;;156.30;91.70;;;0.60;99.90;;;;;;5072519;28;20235;-66
2021/12/12 13:09:59;;;;;;;163.60;91.17;;;0.70;99.90;;;;;;5069286;28;20223;-65
2021/12/12 13:13:06;;;;;;;157.23;92.20;;;0.70;99.90;;;;;;5079111;28;20757;-68
2021/12/12 13:16:01;;;;;;;174.37;94.67;;;0.90;99.90;;;;;;5064410;28;20219;-68
2021/12/12 13:19:00;;;;;;;158.93;92.37;;;0.80;99.90;;;;;;5078798;28;20227;-67
2021/12/12 13:22:02;;;;;;;170.70;97.53;;;0.70;99.90;;;;;;5076112;28;20223;-69
2021/12/12 13:25:04;;;;;;;185.33;101.47;;;0.70;99.90;;;;;;5077066;28;20758;-67
2021/12/12 13:28:07;;;;;;;180.87;98.23;;;0.70;99.90;;;;;;5076958;28;20976;-68
2021/12/12 13:31:02;;;;;;;178.83;95.97;;;0.70;99.90;;;;;;5074268;28;20232;-68
2021/12/12 13:34:01;;;;;;;175.33;96.10;;;0.80;99.90;;;;;;5063782;28;20243;-67
2021/12/12 13:39:54;;;;;;;177.03;67.00;;;0.80;99.90;;;;;;5003734;27;1701943;-66
2021/12/12 13:42:49;;;;;;;163.77;56.03;;;0.90;99.90;;;;;;5037137;28;20693;-67
2021/12/12 13:45:41;;;;;;;155.87;52.30;;;0.90;99.90;;;;;;5038158;28;20232;-65
2021/12/12 13:48:56;;;;;;;168.57;53.17;;;0.90;99.90;;;;;;5052418;28;20777;-69
2021/12/12 13:51:51;;;;;;;164.63;53.60;;;0.80;99.90;;;;;;5058177;28;20309;-68
2021/12/12 13:54:51;;;;;;;164.97;54.53;;;0.80;99.90;;;;;;5055522;28;20218;-67
2021/12/12 13:57:52;;;;;;;167.93;54.60;;;0.80;99.90;;;;;;5057548;28;20216;-69
2021/12/12 14:00:46;;;;;;;181.23;61.33;;;0.80;99.90;;;;;;5056987;28;20216;-66
2021/12/12 14:03:40;;;;;;;171.93;57.40;;;0.80;99.90;;;;;;5041257;28;20216;-68
2021/12/12 14:06:32;;;;;;;177.23;58.83;;;0.70;99.90;;;;;;5045027;28;20229;-67
2021/12/12 14:09:26;;;;;;;178.33;57.37;;;0.90;99.90;;;;;;5056811;28;20835;-66
2021/12/12 14:12:17;;;;;;;174.97;57.20;;;0.90;99.90;;;;;;5047901;28;20227;-65
2021/12/12 14:15:09;;;;;;;192.43;59.77;;;0.90;99.90;;;;;;5037966;28;20229;-67
2021/12/12 14:17:59;;;;;;;196.53;61.20;;;0.90;99.90;;;;;;5049415;28;20947;-68
2021/12/12 14:20:50;;;;;;;199.40;60.00;;;0.90;99.90;;;;;;5040859;28;20221;-67
2021/12/12 14:23:41;;;;;;;198.30;59.73;;;0.90;99.90;;;;;;5047188;28;20216;-65
2021/12/12 14:26:33;;;;;;;200.00;60.37;;;0.90;99.90;;;;;;5043429;28;20224;-70
2021/12/12 14:29:25;;;;;;;188.23;59.93;;;0.80;99.90;;;;;;5044437;28;20240;-68
2021/12/12 14:32:17;;;;;;;201.87;63.53;;;0.80;99.90;;;;;;5023073;28;20232;-69
2021/12/12 14:35:09;;;;;;;207.40;61.83;;;0.90;99.90;;;;;;5034918;28;20305;-68
2021/12/12 14:37:59;;;;;;;207.47;64.00;;;0.90;99.90;;;;;;5038630;28;20225;-67
2021/12/12 14:40:50;;;;;;;201.33;63.93;;;0.90;99.90;;;;;;5035019;28;20231;-68
2021/12/12 14:43:45;;;;;;;211.03;63.60;;;0.90;99.90;;;;;;5038857;28;20307;-67
2021/12/12 14:46:39;;;;;;;214.57;62.50;;;0.90;99.90;;;;;;5037848;28;20228;-67
2021/12/12 14:49:34;;;;;;;207.80;61.97;;;0.90;99.90;;;;;;5032183;28;20917;-66
2021/12/12 14:52:26;;;;;;;229.63;66.47;;;0.90;99.90;;;;;;5022688;28;20313;-65
2021/12/12 14:55:18;;;;;;;222.73;64.07;;;0.90;99.90;;;;;;5024022;28;20217;-67
2021/12/12 14:58:11;;;;;;;196.23;59.77;;;0.90;99.90;;;;;;5019987;28;20761;-67